createdAt,value
2023-01-02T00:00:06.068Z,56.83
2023-01-02T00:02:34.625Z,57.12
2023-01-02T00:05:03.190Z,56.75
2023-01-02T00:07:33.912Z,56.51
2023-01-02T00:10:02.257Z,57.05
2023-01-02T00:12:33.723Z,57.20
2023-01-02T00:15:02.962Z,57.02
2023-01-02T00:17:31.423Z,56.71
2023-01-02T00:19:59.797Z,56.56
2023-01-02T00:22:28.158Z,56.64
2023-01-02T00:24:58.093Z,56.67
2023-01-02T00:27:26.936Z,57.13
2023-01-02T00:29:55.366Z,57.13
2023-01-02T00:32:23.839Z,57.03
2023-01-02T00:34:52.303Z,56.95
2023-01-02T00:37:20.628Z,56.70
2023-01-02T00:39:48.976Z,56.80
2023-01-02T00:42:18.694Z,56.46
2023-01-02T00:44:47.045Z,56.67
2023-01-02T00:47:15.881Z,56.83
2023-01-02T00:49:44.456Z,56.75
2023-01-02T00:52:13.019Z,56.21
2023-01-02T00:54:42.615Z,56.33
2023-01-02T00:57:11.514Z,56.56
2023-01-02T00:59:41.460Z,56.54
2023-01-02T01:02:09.990Z,56.50
2023-01-02T01:04:38.488Z,56.34
2023-01-02T01:07:06.879Z,56.49
2023-01-02T01:09:35.877Z,56.22
2023-01-02T01:12:05.184Z,56.08
2023-01-02T01:14:33.878Z,56.60
2023-01-02T01:17:03.591Z,56.05
2023-01-02T01:19:32.300Z,56.40
2023-01-02T01:22:00.953Z,56.51
2023-01-02T01:24:29.594Z,55.95
2023-01-02T01:26:58.098Z,56.53
2023-01-02T01:29:26.491Z,56.18
2023-01-02T01:31:54.896Z,56.35
2023-01-02T01:34:24.674Z,56.44
2023-01-02T01:36:52.995Z,56.10
2023-01-02T01:39:21.353Z,55.91
2023-01-02T01:41:49.858Z,55.80
2023-01-02T01:44:43.340Z,55.86
2023-01-02T01:47:24.115Z,56.16
2023-01-02T01:50:05.007Z,55.75
2023-01-02T01:52:37.628Z,55.78
2023-01-02T01:55:11.905Z,56.05
2023-01-02T01:57:44.626Z,56.00
2023-01-02T02:00:14.132Z,55.80
2023-01-02T02:02:49.111Z,56.07
2023-01-02T02:05:23.183Z,55.59
2023-01-02T02:08:01.202Z,55.60
2023-01-02T02:10:29.605Z,55.67
2023-01-02T02:12:57.915Z,55.54
2023-01-02T02:15:31.659Z,55.55
2023-01-02T02:18:10.527Z,55.47
2023-01-02T02:20:51.144Z,55.93
2023-01-02T02:23:44.150Z,55.76
2023-01-02T02:26:50.149Z,55.50
2023-01-02T02:29:35.443Z,55.43
2023-01-02T02:32:16.781Z,55.31
2023-01-02T02:34:51.215Z,55.50
2023-01-02T02:37:26.575Z,55.71
2023-01-02T02:40:04.409Z,55.90
2023-01-02T02:42:48.686Z,55.43
2023-01-02T02:45:25.281Z,55.47
2023-01-02T02:48:01.895Z,55.25
2023-01-02T02:50:34.840Z,55.12
2023-01-02T02:53:10.232Z,55.37
2023-01-02T02:55:44.108Z,55.35
2023-01-02T02:58:14.528Z,55.32
2023-01-02T03:00:44.488Z,55.45
2023-01-02T03:03:21.524Z,55.29
2023-01-02T03:06:07.696Z,55.66
2023-01-02T03:08:43.175Z,55.40
2023-01-02T03:11:12.749Z,55.69
2023-01-02T03:13:52.923Z,55.62
2023-01-02T03:16:29.807Z,55.48
2023-01-02T03:19:06.928Z,55.49
2023-01-02T03:21:40.676Z,55.69
2023-01-02T03:24:13.320Z,55.75
2023-01-02T03:26:46.264Z,55.54
2023-01-02T03:29:19.371Z,55.97
2023-01-02T03:31:52.054Z,55.77
2023-01-02T03:34:24.555Z,55.67
2023-01-02T03:36:57.787Z,55.62
2023-01-02T03:39:29.973Z,55.83
2023-01-02T03:42:01.813Z,55.78
2023-01-02T03:44:38.205Z,55.60
2023-01-02T03:47:17.651Z,56.02
2023-01-02T03:49:53.206Z,55.82
2023-01-02T03:52:25.911Z,55.95
2023-01-02T03:54:55.867Z,55.67
2023-01-02T03:57:34.068Z,55.95
2023-01-02T04:00:06.859Z,55.96
2023-01-02T04:02:45.846Z,55.60
2023-01-02T04:05:20.438Z,55.88
2023-01-02T04:07:55.853Z,56.08
2023-01-02T04:10:25.848Z,55.61
2023-01-02T04:12:58.543Z,56.02
2023-01-02T04:15:30.227Z,55.71
2023-01-02T04:18:03.824Z,55.78
2023-01-02T04:20:38.017Z,56.19
2023-01-02T04:23:11.689Z,56.41
2023-01-02T04:25:45.884Z,55.79
2023-01-02T04:28:19.006Z,56.02
2023-01-02T04:30:53.574Z,56.01
2023-01-02T04:33:24.963Z,56.17
2023-01-02T04:35:55.133Z,56.13
2023-01-02T04:38:23.485Z,56.24
2023-01-02T04:40:51.925Z,56.19
2023-01-02T04:43:22.201Z,56.26
2023-01-02T04:45:50.974Z,57.07
2023-01-02T04:48:19.387Z,57.43
2023-01-02T04:50:48.865Z,57.17
2023-01-02T04:53:18.580Z,57.23
2023-01-02T04:55:46.909Z,56.98
2023-01-02T04:58:15.302Z,56.86
2023-01-02T05:00:43.899Z,56.75
2023-01-02T05:03:12.253Z,57.17
2023-01-02T05:05:40.594Z,56.41
2023-01-02T05:08:15.622Z,56.56
2023-01-02T05:10:45.908Z,57.12
2023-01-02T05:13:14.305Z,56.46
2023-01-02T05:15:42.610Z,56.24
2023-01-02T05:18:11.005Z,56.46
2023-01-02T05:20:39.373Z,56.30
2023-01-02T05:23:25.257Z,56.64
2023-01-02T05:25:54.936Z,56.40
2023-01-02T05:28:23.336Z,56.38
2023-01-02T05:30:51.736Z,56.42
2023-01-02T05:33:20.325Z,56.63
2023-01-02T05:35:48.699Z,56.16
2023-01-02T05:38:17.008Z,56.26
2023-01-02T05:40:45.422Z,56.37
2023-01-02T05:43:15.157Z,56.11
2023-01-02T05:45:43.499Z,55.78
2023-01-02T05:48:12.089Z,56.18
2023-01-02T05:50:40.427Z,56.14
2023-01-02T05:53:08.806Z,56.18
2023-01-02T05:55:37.169Z,55.76
2023-01-02T05:58:05.518Z,55.81
2023-01-02T06:00:35.245Z,56.47
2023-01-02T06:03:03.708Z,55.77
2023-01-02T06:05:32.197Z,56.28
2023-01-02T06:08:00.873Z,56.16
2023-01-02T06:10:29.233Z,56.05
2023-01-02T06:12:58.375Z,55.81
2023-01-02T06:15:26.746Z,55.72
2023-01-02T06:17:56.483Z,55.77
2023-01-02T06:20:24.828Z,55.91
2023-01-02T06:22:53.174Z,55.83
2023-01-02T06:25:21.569Z,55.50
2023-01-02T06:27:49.986Z,55.60
2023-01-02T06:30:18.406Z,55.96
2023-01-02T06:32:46.760Z,55.85
2023-01-02T06:35:16.562Z,55.99
2023-01-02T06:37:45.291Z,55.65
2023-01-02T06:40:13.910Z,55.42
2023-01-02T06:42:44.349Z,55.71
2023-01-02T06:45:13.377Z,55.87
2023-01-02T06:47:41.907Z,55.65
2023-01-02T06:50:11.393Z,55.33
2023-01-02T06:52:41.082Z,55.18
2023-01-02T06:55:09.805Z,55.27
2023-01-02T06:57:38.142Z,55.47
2023-01-02T07:00:07.680Z,55.33
2023-01-02T07:02:36.110Z,55.39
2023-01-02T07:05:04.533Z,55.39
2023-01-02T07:07:32.866Z,55.42
2023-01-02T07:10:02.546Z,55.71
2023-01-02T07:12:35.766Z,55.71
2023-01-02T07:15:04.734Z,55.48
2023-01-02T07:17:33.507Z,55.59
2023-01-02T07:20:02.617Z,55.71
2023-01-02T07:22:31.042Z,56.10
2023-01-02T07:25:01.636Z,55.76
2023-01-02T07:27:32.129Z,55.67
2023-01-02T07:30:01.090Z,55.36
2023-01-02T07:32:29.438Z,55.41
2023-01-02T07:34:57.762Z,55.24
2023-01-02T07:37:26.209Z,55.33
2023-01-02T07:39:54.661Z,55.69
2023-01-02T07:42:23.047Z,55.55
2023-01-02T07:44:52.809Z,55.36
2023-01-02T07:47:21.226Z,55.26
2023-01-02T07:49:49.633Z,55.45
2023-01-02T07:52:17.943Z,55.07
2023-01-02T07:54:46.248Z,54.97
2023-01-02T07:57:14.600Z,54.87
2023-01-02T07:59:44.971Z,54.57
2023-01-02T08:02:14.755Z,54.67
2023-01-02T08:04:43.217Z,54.79
2023-01-02T08:07:11.687Z,54.80
2023-01-02T08:09:39.998Z,54.54
2023-01-02T08:12:08.423Z,54.56
2023-01-02T08:14:37.351Z,54.63
2023-01-02T08:17:05.747Z,54.12
2023-01-02T08:19:35.464Z,54.33
2023-01-02T08:22:06.472Z,53.86
2023-01-02T08:24:34.817Z,54.01
2023-01-02T08:27:03.195Z,54.05
2023-01-02T08:29:31.600Z,53.80
2023-01-02T08:32:00.002Z,53.72
2023-01-02T08:34:28.340Z,53.61
2023-01-02T08:36:58.267Z,53.63
2023-01-02T08:39:26.561Z,53.00
2023-01-02T08:41:54.887Z,53.25
2023-01-02T08:44:23.267Z,53.20
2023-01-02T08:46:51.716Z,53.18
2023-01-02T08:49:20.077Z,53.13
2023-01-02T08:51:48.791Z,53.15
2023-01-02T08:54:18.642Z,53.09
2023-01-02T08:56:47.077Z,52.94
2023-01-02T08:59:15.735Z,52.88
2023-01-02T09:01:44.542Z,52.91
2023-01-02T09:04:13.592Z,52.62
2023-01-02T09:06:44.007Z,52.55
2023-01-02T09:09:13.257Z,52.50
2023-01-02T09:11:46.455Z,52.26
2023-01-02T09:14:15.016Z,51.99
2023-01-02T09:16:43.493Z,51.93
2023-01-02T09:19:12.204Z,51.89
2023-01-02T09:21:40.661Z,51.93
2023-01-02T09:24:09.973Z,51.64
2023-01-02T09:26:41.713Z,51.58
2023-01-02T09:29:12.712Z,51.50
2023-01-02T09:31:42.249Z,51.45
2023-01-02T09:34:10.624Z,51.34
2023-01-02T09:36:39.149Z,51.02
2023-01-02T09:39:07.696Z,51.05
2023-01-02T09:41:38.205Z,50.99
2023-01-02T09:44:14.539Z,50.77
2023-01-02T09:46:50.449Z,50.59
2023-01-02T09:49:22.579Z,50.45
2023-01-02T09:51:51.838Z,50.46
2023-01-02T09:54:26.459Z,50.27
2023-01-02T09:57:11.398Z,50.16
2023-01-02T09:59:45.189Z,50.39
2023-01-02T10:02:30.005Z,50.27
2023-01-02T10:05:16.399Z,50.11
2023-01-02T10:07:52.189Z,49.84
2023-01-02T10:10:28.723Z,49.70
2023-01-02T10:13:04.588Z,49.63
2023-01-02T10:15:33.513Z,49.74
2023-01-02T10:18:18.784Z,49.50
2023-01-02T10:20:54.255Z,49.53
2023-01-02T10:23:27.963Z,49.46
2023-01-02T10:26:01.589Z,49.63
2023-01-02T10:28:42.452Z,49.41
2023-01-02T10:31:17.722Z,49.48
2023-01-02T10:33:52.596Z,49.36
2023-01-02T10:36:27.615Z,49.14
2023-01-02T10:38:59.780Z,48.85
2023-01-02T10:41:29.481Z,48.95
2023-01-02T10:44:03.425Z,48.98
2023-01-02T10:46:34.841Z,48.64
2023-01-02T10:49:06.043Z,48.66
2023-01-02T10:51:35.549Z,48.43
2023-01-02T10:54:06.922Z,48.29
2023-01-02T10:56:38.483Z,48.07
2023-01-02T10:59:21.642Z,48.15
2023-01-02T11:01:52.906Z,48.10
2023-01-02T11:04:25.529Z,47.86
2023-01-02T11:06:59.583Z,47.73
2023-01-02T11:09:29.303Z,47.62
2023-01-02T11:12:00.235Z,47.53
2023-01-02T11:14:31.996Z,47.69
2023-01-02T11:17:06.207Z,47.63
2023-01-02T11:19:42.831Z,47.19
2023-01-02T11:22:13.692Z,47.55
2023-01-02T11:25:00.204Z,46.89
2023-01-02T11:27:34.056Z,47.15
2023-01-02T11:30:03.598Z,47.02
2023-01-02T11:32:39.099Z,46.61
2023-01-02T11:35:35.063Z,46.19
2023-01-02T11:38:03.690Z,46.65
2023-01-02T11:40:33.410Z,46.23
2023-01-02T11:43:25.584Z,46.08
2023-01-02T11:45:54.547Z,46.02
2023-01-02T11:48:24.853Z,45.98
2023-01-02T11:50:54.898Z,45.95
2023-01-02T11:53:31.056Z,45.82
2023-01-02T11:56:08.709Z,45.60
2023-01-02T11:58:48.605Z,45.39
2023-01-02T12:01:22.938Z,45.29
2023-01-02T12:03:51.565Z,45.38
2023-01-02T12:06:23.253Z,45.25
2023-01-02T12:09:06.597Z,44.94
2023-01-02T12:11:59.125Z,45.24
2023-01-02T12:14:49.211Z,45.53
2023-01-02T12:17:25.944Z,45.65
2023-01-02T12:20:21.617Z,45.71
2023-01-02T12:23:15.573Z,45.69
2023-01-02T12:25:58.232Z,45.98
2023-01-02T12:28:49.796Z,46.23
2023-01-02T12:31:38.012Z,46.47
2023-01-02T12:34:17.473Z,46.72
2023-01-02T12:36:59.889Z,46.97
2023-01-02T12:40:06.067Z,47.19
2023-01-02T12:42:56.730Z,47.34
2023-01-02T12:45:33.447Z,47.75
2023-01-02T12:48:31.799Z,47.70
2023-01-02T12:51:09.705Z,48.00
2023-01-02T12:54:18.819Z,48.17
2023-01-02T12:56:59.142Z,48.47
2023-01-02T13:00:01.360Z,48.30
2023-01-02T13:02:50.441Z,48.52
2023-01-02T13:05:23.199Z,48.37
2023-01-02T13:07:56.660Z,48.66
2023-01-02T13:10:28.736Z,48.66
2023-01-02T13:13:00.220Z,49.01
2023-01-02T13:15:31.295Z,49.02
2023-01-02T13:18:07.611Z,48.97
2023-01-02T13:20:45.871Z,49.21
2023-01-02T13:23:28.682Z,48.68
2023-01-02T13:26:01.531Z,48.67
2023-01-02T13:28:31.336Z,48.41
2023-01-02T13:31:35.743Z,48.53
2023-01-02T13:33:53.797Z,48.46
2023-01-02T13:36:26.516Z,48.54
2023-01-02T13:38:57.671Z,48.74
2023-01-02T13:41:27.489Z,49.00
2023-01-02T13:43:59.959Z,49.36
2023-01-02T13:47:01.974Z,49.89
2023-01-02T13:49:22.349Z,49.95
2023-01-02T13:51:51.012Z,49.83
2023-01-02T13:54:21.084Z,49.99
2023-01-02T13:57:18.391Z,49.89
2023-01-02T13:59:59.352Z,49.56
2023-01-02T14:02:28.482Z,49.63
2023-01-02T14:04:56.964Z,49.83
2023-01-02T14:07:49.458Z,49.92
2023-01-02T14:10:35.817Z,50.13
2023-01-02T14:13:10.606Z,50.26
2023-01-02T14:16:22.709Z,50.14
2023-01-02T14:19:21.399Z,50.45
2023-01-02T14:21:54.192Z,50.27
2023-01-02T14:24:31.110Z,50.62
2023-01-02T14:27:02.118Z,50.75
2023-01-02T14:29:32.416Z,50.39
2023-01-02T14:32:07.340Z,50.56
2023-01-02T14:34:46.080Z,50.67
2023-01-02T14:37:28.485Z,50.76
2023-01-02T14:39:56.992Z,50.96
2023-01-02T14:42:49.998Z,51.10
2023-01-02T14:45:23.830Z,51.34
2023-01-02T14:47:56.085Z,51.58
2023-01-02T14:50:31.288Z,51.55
2023-01-02T14:53:06.520Z,51.68
2023-01-02T14:55:42.255Z,51.66
2023-01-02T14:58:22.956Z,51.77
2023-01-02T15:00:52.487Z,51.61
2023-01-02T15:03:28.383Z,51.71
2023-01-02T15:06:03.760Z,51.94
2023-01-02T15:08:37.551Z,51.96
2023-01-02T15:11:35.047Z,52.63
2023-01-02T15:14:05.320Z,52.53
2023-01-02T15:16:43.784Z,52.87
2023-01-02T15:19:19.827Z,52.90
2023-01-02T15:21:49.635Z,52.96
2023-01-02T15:24:22.197Z,52.87
2023-01-02T15:26:51.322Z,53.25
2023-01-02T15:29:26.369Z,53.24
2023-01-02T15:31:57.343Z,53.50
2023-01-02T15:34:27.939Z,53.51
2023-01-02T15:36:59.940Z,53.45
2023-01-02T15:39:35.601Z,53.72
2023-01-02T15:42:12.124Z,53.80
2023-01-02T15:44:59.197Z,53.90
2023-01-02T15:47:28.774Z,54.04
2023-01-02T15:49:58.596Z,54.46
2023-01-02T15:52:31.991Z,54.81
2023-01-02T15:55:01.144Z,54.87
2023-01-02T15:57:32.645Z,54.86
2023-01-02T16:00:01.899Z,54.68
2023-01-02T16:02:36.634Z,54.69
2023-01-02T16:05:17.484Z,54.93
2023-01-02T16:07:53.133Z,54.89
2023-01-02T16:10:23.771Z,55.12
2023-01-02T16:12:54.865Z,55.59
2023-01-02T16:15:27.689Z,55.60
2023-01-02T16:17:58.138Z,55.92
2023-01-02T16:20:28.596Z,55.80
2023-01-02T16:23:01.550Z,56.14
2023-01-02T16:25:31.704Z,56.09
2023-01-02T16:28:02.721Z,56.20
2023-01-02T16:30:38.067Z,56.13
2023-01-02T16:33:22.607Z,56.46
2023-01-02T16:36:00.731Z,56.16
2023-01-02T16:38:31.973Z,56.01
2023-01-02T16:41:04.561Z,56.17
2023-01-02T16:43:42.809Z,55.85
2023-01-02T16:46:15.715Z,55.97
2023-01-02T16:48:44.962Z,56.00
2023-01-02T16:51:16.099Z,55.81
2023-01-02T16:53:46.660Z,56.05
2023-01-02T16:56:16.108Z,56.10
2023-01-02T16:58:44.769Z,56.21
2023-01-02T17:01:15.575Z,56.67
2023-01-02T17:03:45.269Z,56.67
2023-01-02T17:06:15.547Z,56.97
2023-01-02T17:08:45.257Z,56.99
2023-01-02T17:11:16.513Z,57.12
2023-01-02T17:13:45.033Z,57.11
2023-01-02T17:16:13.447Z,57.10
2023-01-02T17:18:41.851Z,57.17
2023-01-02T17:21:10.601Z,56.94
2023-01-02T17:23:39.772Z,57.36
2023-01-02T17:26:09.594Z,56.90
2023-01-02T17:28:37.982Z,56.67
2023-01-02T17:31:06.671Z,56.86
2023-01-02T17:33:35.033Z,57.09
2023-01-02T17:36:08.157Z,56.98
2023-01-02T17:38:38.532Z,57.14
2023-01-02T17:41:09.974Z,57.47
2023-01-02T17:43:39.029Z,58.00
2023-01-02T17:47:04.374Z,58.11
2023-01-02T17:49:21.133Z,57.92
2023-01-02T17:51:49.630Z,58.22
2023-01-02T17:54:18.262Z,58.04
2023-01-02T17:56:48.093Z,57.93
2023-01-02T17:59:19.265Z,58.15
2023-01-02T18:01:48.211Z,58.40
2023-01-02T18:04:17.041Z,58.94
2023-01-02T18:06:45.405Z,58.64
2023-01-02T18:09:13.878Z,59.12
2023-01-02T18:11:42.318Z,58.97
2023-01-02T18:14:20.385Z,58.68
2023-01-02T18:16:50.689Z,58.86
2023-01-02T18:19:22.493Z,58.63
2023-01-02T18:21:51.641Z,58.75
2023-01-02T18:24:25.112Z,58.15
2023-01-02T18:26:57.523Z,58.70
2023-01-02T18:29:37.229Z,58.38
2023-01-02T18:32:11.910Z,59.04
2023-01-02T18:34:48.048Z,58.93
2023-01-02T18:37:21.876Z,58.97
2023-01-02T18:39:51.448Z,58.86
2023-01-02T18:42:22.111Z,58.94
2023-01-02T18:44:53.397Z,58.35
2023-01-02T18:47:30.678Z,58.67
2023-01-02T18:50:24.124Z,58.74
2023-01-02T18:52:52.979Z,58.71
2023-01-02T18:55:25.687Z,58.41
2023-01-02T18:57:58.055Z,58.00
2023-01-02T19:00:30.067Z,59.47
2023-01-02T19:03:02.260Z,59.29
2023-01-02T19:05:32.866Z,59.27
2023-01-02T19:08:13.869Z,58.99
2023-01-02T19:10:44.509Z,58.87
2023-01-02T19:13:18.267Z,58.07
2023-01-02T19:15:50.772Z,58.13
2023-01-02T19:18:24.689Z,58.31
2023-01-02T19:20:58.620Z,58.19
2023-01-02T19:23:31.156Z,58.16
2023-01-02T19:26:12.851Z,57.67
2023-01-02T19:28:49.036Z,57.48
2023-01-02T19:31:18.968Z,57.44
2023-01-02T19:33:52.627Z,57.26
2023-01-02T19:36:25.721Z,57.65
2023-01-02T19:38:54.072Z,57.31
2023-01-02T19:41:42.623Z,57.49
2023-01-02T19:44:10.974Z,57.12
2023-01-02T19:46:40.751Z,57.33
2023-01-02T19:49:09.230Z,57.22
2023-01-02T19:51:37.671Z,57.53
2023-01-02T19:54:06.063Z,57.28
2023-01-02T19:56:34.483Z,56.75
2023-01-02T19:59:02.907Z,56.46
2023-01-02T20:01:31.359Z,56.73
2023-01-02T20:04:01.184Z,56.35
2023-01-02T20:06:29.838Z,56.38
2023-01-02T20:08:58.398Z,56.40
2023-01-02T20:11:43.991Z,56.67
2023-01-02T20:14:15.290Z,57.05
2023-01-02T20:16:43.747Z,56.92
2023-01-02T20:19:13.471Z,57.03
2023-01-02T20:21:42.214Z,57.25
2023-01-02T20:24:10.691Z,57.36
2023-01-02T20:26:39.059Z,57.17
2023-01-02T20:29:07.472Z,57.05
2023-01-02T20:31:35.902Z,57.30
2023-01-02T20:34:04.357Z,57.68
2023-01-02T20:36:34.166Z,57.36
2023-01-02T20:39:02.594Z,57.68
2023-01-02T20:41:30.959Z,57.83
2023-01-02T20:43:59.427Z,57.92
2023-01-02T20:46:28.104Z,57.74
2023-01-02T20:48:56.635Z,57.88
2023-01-02T20:51:25.010Z,57.91
2023-01-02T20:53:54.799Z,58.13
2023-01-02T20:56:23.259Z,58.01
2023-01-02T20:58:52.532Z,58.20
2023-01-02T21:01:24.781Z,58.26
2023-01-02T21:03:53.406Z,58.95
2023-01-02T21:06:22.113Z,58.72
2023-01-02T21:08:50.498Z,59.15
2023-01-02T21:11:20.153Z,59.03
2023-01-02T21:13:48.473Z,58.89
2023-01-02T21:16:17.183Z,59.37
2023-01-02T21:18:50.029Z,59.44
2023-01-02T21:21:20.288Z,59.27
2023-01-02T21:23:50.530Z,59.06
2023-01-02T21:26:21.891Z,59.20
2023-01-02T21:28:50.940Z,58.75
2023-01-02T21:31:21.100Z,58.67
2023-01-02T21:33:50.317Z,58.85
2023-01-02T21:36:18.706Z,58.86
2023-01-02T21:38:47.051Z,59.10
2023-01-02T21:41:32.904Z,58.92
2023-01-02T21:44:02.719Z,58.92
2023-01-02T21:46:31.157Z,58.81
2023-01-02T21:48:59.704Z,58.96
2023-01-02T21:51:32.793Z,59.43
2023-01-02T21:54:01.771Z,59.16
2023-01-02T21:56:30.639Z,58.93
2023-01-02T21:58:59.128Z,58.90
2023-01-02T22:01:28.966Z,58.86
2023-01-02T22:03:57.504Z,59.02
2023-01-02T22:06:25.984Z,59.21
2023-01-02T22:08:54.307Z,59.00
2023-01-02T22:11:40.197Z,59.03
2023-01-02T22:14:08.564Z,58.77
2023-01-02T22:16:38.408Z,58.91
2023-01-02T22:19:06.834Z,58.76
2023-01-02T22:21:35.440Z,59.18
2023-01-02T22:24:03.989Z,59.71
2023-01-02T22:26:32.669Z,59.36
2023-01-02T22:29:01.029Z,59.35
2023-01-02T22:31:30.122Z,59.56
2023-01-02T22:34:00.645Z,59.28
2023-01-02T22:36:31.431Z,58.99
2023-01-02T22:39:27.051Z,59.30
2023-01-02T22:42:33.633Z,59.12
2023-01-02T22:45:00.827Z,59.32
2023-01-02T22:47:32.832Z,59.59
2023-01-02T22:50:05.268Z,59.47
2023-01-02T22:52:37.145Z,59.25
2023-01-02T22:55:16.124Z,59.63
2023-01-02T22:57:51.151Z,59.78
2023-01-02T23:00:23.329Z,59.79
2023-01-02T23:02:51.858Z,59.74
2023-01-02T23:05:22.511Z,59.53
2023-01-02T23:07:51.332Z,59.81
2023-01-02T23:10:19.771Z,59.73
2023-01-02T23:12:48.175Z,60.08
2023-01-02T23:15:16.522Z,59.92
2023-01-02T23:18:02.719Z,60.41
2023-01-02T23:20:34.307Z,59.99
2023-01-02T23:23:03.884Z,59.93
2023-01-02T23:25:32.761Z,60.14
2023-01-02T23:28:01.262Z,60.09
2023-01-02T23:30:30.125Z,60.38
2023-01-02T23:33:01.029Z,60.01
2023-01-02T23:35:29.931Z,60.39
2023-01-02T23:38:00.204Z,59.80
2023-01-02T23:40:33.979Z,59.99
2023-01-02T23:43:02.805Z,60.28
2023-01-02T23:45:31.558Z,60.24
2023-01-02T23:48:01.027Z,60.17
2023-01-02T23:50:29.450Z,60.27
2023-01-02T23:52:59.292Z,60.11
2023-01-02T23:55:30.275Z,59.95
2023-01-02T23:57:58.901Z,60.25
